Time;durP1;ratioP1;P1;durP2;ratioP2;P2;SDS_P1;SDS_P2;PMS_P1;PMS_P2;Temp;Humidity;BMP_temperature;BMP_pressure;BME280_temperature;BME280_humidity;BME280_pressure;Samples;Min_cycle;Max_cycle;Signal;HPM_P1;HPM_P2
2024/02/18 00:01:18;;;;;;;13.13;3.42;;;5.90;99.90;;;;;;5036051;28;20021;-75
2024/02/18 00:03:47;;;;;;;12.93;4.07;;;5.90;99.90;;;;;;5034608;28;20582;-75
2024/02/18 00:06:12;;;;;;;14.68;3.13;;;5.90;99.90;;;;;;5035918;28;20149;-76
2024/02/18 00:08:38;;;;;;;12.70;3.95;;;5.90;99.90;;;;;;5035916;28;20452;-75
2024/02/18 00:11:05;;;;;;;7.05;2.78;;;5.90;99.90;;;;;;5035876;28;20021;-76
2024/02/18 00:13:31;;;;;;;4.82;3.40;;;5.80;99.90;;;;;;5034681;28;20036;-76
2024/02/18 00:15:56;;;;;;;12.70;4.20;;;5.80;99.90;;;;;;5035933;28;20462;-76
2024/02/18 00:18:22;;;;;;;21.10;3.75;;;5.80;99.90;;;;;;5034491;28;20030;-76
2024/02/18 00:20:49;;;;;;;5.75;2.90;;;5.70;99.90;;;;;;5035350;28;20102;-75
2024/02/18 00:23:14;;;;;;;13.70;3.08;;;5.70;99.90;;;;;;5034094;28;20052;-75
2024/02/18 00:25:40;;;;;;;17.30;3.17;;;5.80;99.90;;;;;;5035677;28;20480;-75
2024/02/18 00:28:06;;;;;;;11.93;3.83;;;5.80;99.90;;;;;;5034410;28;20029;-75
2024/02/18 00:30:31;;;;;;;8.55;3.60;;;5.80;99.90;;;;;;5034044;28;20148;-75
2024/02/18 00:32:57;;;;;;;5.75;3.00;;;5.80;99.90;;;;;;5034344;28;20025;-75
2024/02/18 00:35:22;;;;;;;12.88;3.22;;;5.70;99.90;;;;;;5035520;28;20093;-75
2024/02/18 00:37:48;;;;;;;4.75;3.47;;;5.70;99.90;;;;;;5035241;28;20033;-75
2024/02/18 00:40:14;;;;;;;7.40;3.47;;;5.60;99.90;;;;;;5035055;28;20021;-75
2024/02/18 00:42:39;;;;;;;4.07;2.78;;;5.60;99.90;;;;;;5035062;28;20682;-75
2024/02/18 00:45:05;;;;;;;9.43;3.60;;;5.60;99.90;;;;;;5035407;28;20033;-75
2024/02/18 00:47:32;;;;;;;6.70;3.35;;;5.50;99.90;;;;;;5035324;28;20075;-75
2024/02/18 00:49:57;;;;;;;7.93;3.22;;;5.60;99.90;;;;;;5035189;28;20467;-75
2024/02/18 00:52:23;;;;;;;6.47;2.90;;;5.60;99.90;;;;;;5035140;28;20051;-76
2024/02/18 00:54:48;;;;;;;5.30;3.13;;;5.60;99.90;;;;;;5033754;28;20030;-74
2024/02/18 00:57:14;;;;;;;10.05;3.47;;;5.50;99.90;;;;;;5034770;28;20479;-75
2024/02/18 00:59:40;;;;;;;6.97;3.50;;;5.50;99.90;;;;;;5033740;28;20094;-75
2024/02/18 01:02:05;;;;;;;7.53;3.33;;;5.50;99.90;;;;;;5034894;28;20030;-76
2024/02/18 01:04:31;;;;;;;12.32;3.97;;;5.50;99.90;;;;;;5033578;28;20092;-76
2024/02/18 01:06:56;;;;;;;5.72;3.47;;;5.40;99.90;;;;;;5033620;28;20029;-75
2024/02/18 01:09:22;;;;;;;3.90;3.25;;;5.50;99.90;;;;;;5032716;28;20480;-75
2024/02/18 01:11:48;;;;;;;8.38;3.03;;;5.50;99.90;;;;;;5033210;28;20028;-75
2024/02/18 01:14:13;;;;;;;6.45;3.47;;;5.50;99.90;;;;;;5034802;28;20037;-76
2024/02/18 01:16:40;;;;;;;5.50;3.47;;;5.40;99.90;;;;;;5034531;28;20033;-76
2024/02/18 01:19:06;;;;;;;7.82;3.90;;;5.40;99.90;;;;;;5033396;28;20518;-75
2024/02/18 01:21:31;;;;;;;5.50;3.55;;;5.40;99.90;;;;;;5034414;28;20033;-76
2024/02/18 01:23:57;;;;;;;4.32;3.92;;;5.30;99.90;;;;;;5034559;28;20373;-76
2024/02/18 01:26:23;;;;;;;4.15;3.55;;;5.30;99.90;;;;;;5033355;28;20017;-75
2024/02/18 01:28:48;;;;;;;5.55;4.00;;;5.30;99.90;;;;;;5034391;28;20022;-75
2024/02/18 01:31:14;;;;;;;5.35;3.85;;;5.20;99.90;;;;;;5033017;28;20021;-75
2024/02/18 01:33:42;;;;;;;11.55;3.97;;;5.20;99.90;;;;;;5034024;28;20061;-76
2024/02/18 01:36:08;;;;;;;5.22;3.15;;;5.20;99.90;;;;;;5034528;28;20032;-76
2024/02/18 01:38:34;;;;;;;6.20;4.10;;;5.10;99.90;;;;;;5034227;28;20507;-75
2024/02/18 01:41:01;;;;;;;4.28;2.95;;;5.10;99.90;;;;;;5033982;28;20544;-75
2024/02/18 01:43:26;;;;;;;5.60;3.75;;;5.10;99.90;;;;;;5034251;28;20049;-76
2024/02/18 01:45:52;;;;;;;6.93;4.00;;;5.10;99.90;;;;;;5033962;28;20053;-76
2024/02/18 01:48:20;;;;;;;3.55;3.25;;;5.00;99.90;;;;;;5034403;28;20026;-75
2024/02/18 01:50:46;;;;;;;6.72;3.38;;;5.00;99.90;;;;;;5032417;28;20109;-76
2024/02/18 01:53:13;;;;;;;7.03;3.83;;;5.00;99.90;;;;;;5032430;28;20033;-76
2024/02/18 01:55:41;;;;;;;7.57;2.92;;;5.00;99.90;;;;;;5033747;28;20076;-75
2024/02/18 01:58:07;;;;;;;10.93;3.85;;;4.90;99.90;;;;;;5033651;28;20108;-75
2024/02/18 02:00:33;;;;;;;12.07;3.42;;;4.90;99.90;;;;;;5032495;28;20467;-75
2024/02/18 02:02:59;;;;;;;17.50;3.38;;;4.80;99.90;;;;;;5032523;28;20082;-75
2024/02/18 02:05:26;;;;;;;9.77;2.90;;;4.80;99.90;;;;;;5032719;28;20018;-75
2024/02/18 02:07:52;;;;;;;7.82;3.38;;;4.70;99.90;;;;;;5033674;28;20029;-75
2024/02/18 02:10:19;;;;;;;7.43;3.00;;;4.70;99.90;;;;;;5033105;28;20021;-74
2024/02/18 02:12:45;;;;;;;17.00;3.92;;;4.70;99.90;;;;;;5033367;28;20025;-75
2024/02/18 02:15:11;;;;;;;9.00;3.45;;;4.70;99.90;;;;;;5032104;28;20025;-75
2024/02/18 02:17:38;;;;;;;10.75;3.95;;;4.70;99.90;;;;;;5033188;28;20048;-76
2024/02/18 02:20:07;;;;;;;5.35;3.50;;;4.60;99.90;;;;;;5031020;28;20113;-75
2024/02/18 02:22:33;;;;;;;14.27;3.05;;;4.50;99.90;;;;;;5032082;28;20022;-75
2024/02/18 02:24:59;;;;;;;4.45;3.40;;;4.50;99.90;;;;;;5033145;28;20083;-75
2024/02/18 02:27:29;;;;;;;11.00;3.50;;;4.40;99.90;;;;;;5033107;28;20021;-75
2024/02/18 02:29:55;;;;;;;5.30;3.33;;;4.50;99.90;;;;;;5032850;28;20420;-75
2024/02/18 02:32:21;;;;;;;4.13;3.35;;;4.40;99.90;;;;;;5031873;28;20036;-75
2024/02/18 02:34:46;;;;;;;7.03;2.83;;;4.40;99.90;;;;;;5031806;28;20025;-74
2024/02/18 02:37:12;;;;;;;4.20;3.03;;;4.40;99.90;;;;;;5032870;28;20124;-76
2024/02/18 02:39:37;;;;;;;9.60;3.28;;;4.30;99.90;;;;;;5032962;28;20023;-75
2024/02/18 02:42:05;;;;;;;3.30;2.58;;;4.30;99.90;;;;;;5032721;28;20022;-75
2024/02/18 02:44:30;;;;;;;7.82;3.15;;;4.20;99.90;;;;;;5032995;28;20025;-75
2024/02/18 02:46:56;;;;;;;3.25;2.80;;;4.20;99.90;;;;;;5032958;28;20025;-75
2024/02/18 02:49:21;;;;;;;4.85;2.85;;;4.10;99.90;;;;;;5032466;28;20029;-75
2024/02/18 02:51:47;;;;;;;2.88;2.58;;;4.00;99.90;;;;;;5031333;28;20395;-75
2024/02/18 02:54:13;;;;;;;2.92;2.47;;;3.90;99.90;;;;;;5031580;28;20120;-75
2024/02/18 02:56:38;;;;;;;2.40;2.13;;;3.90;99.90;;;;;;5032695;28;20065;-75
2024/02/18 02:59:04;;;;;;;4.20;3.15;;;3.80;99.90;;;;;;5032792;28;20037;-75
2024/02/18 03:01:30;;;;;;;3.53;2.75;;;3.80;99.90;;;;;;5031259;28;20049;-74
2024/02/18 03:03:55;;;;;;;4.03;2.72;;;3.80;99.90;;;;;;5032525;28;20033;-75
2024/02/18 03:06:21;;;;;;;3.40;2.28;;;3.80;99.90;;;;;;5032196;28;20484;-75
2024/02/18 03:08:47;;;;;;;3.47;2.55;;;3.80;99.90;;;;;;5031398;28;20086;-74
2024/02/18 03:11:13;;;;;;;6.32;4.82;;;3.80;99.90;;;;;;5032480;28;20053;-75
2024/02/18 03:13:38;;;;;;;7.65;4.05;;;3.70;99.90;;;;;;5032291;28;20025;-75
2024/02/18 03:16:04;;;;;;;7.53;3.40;;;3.60;99.90;;;;;;5032419;28;20022;-75
2024/02/18 03:18:30;;;;;;;4.82;2.60;;;3.50;99.90;;;;;;5032385;28;20472;-75
2024/02/18 03:20:57;;;;;;;3.90;2.88;;;3.40;99.90;;;;;;5031990;28;20052;-74
2024/02/18 03:23:22;;;;;;;6.03;3.78;;;3.50;99.90;;;;;;5032065;28;20017;-75
2024/02/18 03:25:48;;;;;;;5.03;3.75;;;3.40;99.90;;;;;;5032451;28;20032;-75
2024/02/18 03:28:13;;;;;;;3.13;2.72;;;3.40;99.90;;;;;;5032365;28;20064;-75
2024/02/18 03:30:40;;;;;;;4.95;2.63;;;3.30;99.90;;;;;;5031984;28;20101;-75
2024/02/18 03:33:06;;;;;;;7.53;2.88;;;3.40;99.90;;;;;;5032093;28;20461;-75
2024/02/18 03:35:31;;;;;;;3.05;2.70;;;3.40;99.90;;;;;;5030999;28;20064;-75
2024/02/18 03:37:58;;;;;;;4.32;3.05;;;3.30;99.90;;;;;;5030677;28;20057;-76
2024/02/18 03:40:24;;;;;;;11.00;3.03;;;3.40;99.90;;;;;;5032027;28;20550;-75
2024/02/18 03:42:52;;;;;;;6.55;2.90;;;3.30;99.90;;;;;;5030720;28;20033;-75
2024/02/18 03:45:18;;;;;;;4.32;2.72;;;3.30;99.90;;;;;;5032316;28;20025;-75
2024/02/18 03:47:44;;;;;;;4.50;3.22;;;3.20;99.90;;;;;;5032207;28;20022;-75
2024/02/18 03:50:14;;;;;;;4.30;3.40;;;3.20;99.90;;;;;;5031822;28;20329;-76
2024/02/18 03:52:43;;;;;;;8.05;3.00;;;3.10;99.90;;;;;;5032159;28;20017;-76
2024/02/18 03:55:12;;;;;;;2.58;2.38;;;3.10;99.90;;;;;;5030844;28;20055;-75
2024/02/18 03:57:38;;;;;;;2.90;2.45;;;3.20;99.90;;;;;;5030943;28;20049;-75
2024/02/18 04:00:06;;;;;;;5.03;3.05;;;3.20;99.90;;;;;;5031703;28;20025;-75
2024/02/18 04:02:39;;;;;;;5.38;3.20;;;3.10;99.90;;;;;;5031580;28;20037;-76
2024/02/18 04:05:06;;;;;;;4.22;3.15;;;3.10;99.90;;;;;;5031612;28;20026;-75
2024/02/18 04:07:33;;;;;;;5.03;2.78;;;3.10;99.90;;;;;;5031693;28;20422;-76
2024/02/18 04:09:58;;;;;;;4.40;3.25;;;3.00;99.90;;;;;;5031711;28;20026;-75
2024/02/18 04:12:24;;;;;;;5.57;3.63;;;2.90;99.90;;;;;;5030627;28;20396;-75
2024/02/18 04:14:50;;;;;;;5.10;3.17;;;3.00;99.90;;;;;;5031958;28;20033;-74
2024/02/18 04:17:15;;;;;;;6.53;4.13;;;2.90;99.90;;;;;;5031804;28;20025;-74
2024/02/18 04:19:41;;;;;;;5.05;3.50;;;3.00;99.90;;;;;;5031883;28;20021;-75
2024/02/18 04:22:07;;;;;;;5.88;3.58;;;2.90;99.90;;;;;;5031624;28;20072;-74
2024/02/18 04:24:32;;;;;;;4.50;3.85;;;2.90;99.90;;;;;;5031791;28;20029;-75
2024/02/18 04:27:00;;;;;;;4.68;3.17;;;2.80;99.90;;;;;;5031697;28;20018;-75
2024/02/18 04:29:26;;;;;;;5.07;3.83;;;2.80;99.90;;;;;;5030403;28;20100;-75
2024/02/18 04:31:51;;;;;;;4.95;3.55;;;2.80;99.90;;;;;;5030365;28;20029;-74
2024/02/18 04:34:17;;;;;;;5.35;3.90;;;2.80;99.90;;;;;;5030297;28;20502;-76
2024/02/18 04:36:47;;;;;;;5.60;4.15;;;2.80;99.90;;;;;;5030413;28;20026;-75
2024/02/18 04:39:13;;;;;;;3.92;3.42;;;2.80;99.90;;;;;;5030399;28;20034;-74
2024/02/18 04:41:38;;;;;;;5.47;3.70;;;2.80;99.90;;;;;;5031587;28;20047;-75
2024/02/18 04:44:04;;;;;;;6.40;4.45;;;2.70;99.90;;;;;;5033291;28;20030;-75
2024/02/18 04:46:30;;;;;;;4.80;3.53;;;2.70;99.90;;;;;;5034342;28;20040;-75
2024/02/18 04:48:58;;;;;;;4.72;3.40;;;2.70;99.90;;;;;;5035357;28;20022;-74
2024/02/18 04:51:24;;;;;;;6.03;3.95;;;2.80;99.90;;;;;;5035211;28;20060;-75
2024/02/18 04:53:49;;;;;;;4.93;3.67;;;2.60;99.90;;;;;;5035138;28;20022;-75
2024/02/18 04:56:15;;;;;;;3.63;3.08;;;2.60;99.90;;;;;;5033885;28;20026;-75
2024/02/18 04:58:40;;;;;;;4.30;3.10;;;2.60;99.90;;;;;;5035343;28;20388;-75
2024/02/18 05:01:09;;;;;;;7.68;3.22;;;2.60;99.90;;;;;;5034882;28;20041;-74
2024/02/18 05:03:35;;;;;;;17.65;3.35;;;2.60;99.90;;;;;;5034824;28;20053;-76
2024/02/18 05:06:01;;;;;;;9.32;2.88;;;2.60;99.90;;;;;;5034942;28;20472;-74
2024/02/18 05:08:26;;;;;;;9.43;3.15;;;2.60;99.90;;;;;;5034761;28;20090;-74
2024/02/18 05:10:52;;;;;;;33.25;4.05;;;2.50;99.90;;;;;;5034559;28;20503;-75
2024/02/18 05:13:18;;;;;;;24.27;4.22;;;2.40;99.90;;;;;;5034869;28;20079;-75
2024/02/18 05:15:46;;;;;;;29.17;4.10;;;2.40;99.90;;;;;;5034633;28;20025;-74
2024/02/18 05:18:12;;;;;;;14.38;3.40;;;2.40;99.90;;;;;;5034296;28;20424;-75
2024/02/18 05:20:37;;;;;;;20.20;3.38;;;2.40;99.90;;;;;;5032964;28;20083;-75
2024/02/18 05:23:03;;;;;;;18.67;3.47;;;2.40;99.90;;;;;;5034583;28;20026;-75
2024/02/18 05:25:29;;;;;;;13.77;3.38;;;2.40;99.90;;;;;;5033200;28;20053;-75
2024/02/18 05:27:54;;;;;;;5.35;2.83;;;2.30;99.90;;;;;;5033143;28;20456;-75
2024/02/18 05:30:20;;;;;;;11.48;3.42;;;2.30;99.90;;;;;;5032978;28;20116;-75
2024/02/18 05:32:45;;;;;;;3.13;2.53;;;2.30;99.90;;;;;;5034538;28;20061;-75
2024/02/18 05:35:11;;;;;;;15.85;3.00;;;2.20;99.90;;;;;;5033210;28;20120;-75
2024/02/18 05:37:37;;;;;;;14.60;3.55;;;2.20;99.90;;;;;;5034032;28;20033;-75
2024/02/18 05:40:04;;;;;;;17.13;3.38;;;2.20;99.90;;;;;;5034064;28;20052;-76
2024/02/18 05:42:29;;;;;;;7.82;4.35;;;2.30;99.90;;;;;;5033843;28;20017;-75
2024/02/18 05:44:55;;;;;;;14.35;2.97;;;2.20;99.90;;;;;;5034166;28;20022;-76
2024/02/18 05:47:21;;;;;;;20.27;3.65;;;2.20;99.90;;;;;;5034085;28;20033;-75
2024/02/18 05:49:46;;;;;;;16.83;4.20;;;2.10;99.90;;;;;;5032635;28;20025;-75
2024/02/18 05:52:12;;;;;;;7.80;3.40;;;2.10;99.90;;;;;;5033733;28;20032;-75
2024/02/18 05:54:38;;;;;;;11.82;3.55;;;2.10;99.90;;;;;;5034005;28;20026;-75
2024/02/18 05:57:05;;;;;;;8.00;2.95;;;2.10;99.90;;;;;;5034068;28;20033;-76
2024/02/18 05:59:31;;;;;;;4.60;2.58;;;2.20;99.90;;;;;;5033901;28;20476;-76
2024/02/18 06:01:57;;;;;;;4.07;3.10;;;2.20;99.90;;;;;;5033584;28;20088;-75
2024/02/18 06:04:22;;;;;;;9.65;2.97;;;2.20;99.90;;;;;;5033883;28;20071;-75
2024/02/18 06:06:48;;;;;;;22.85;3.50;;;2.20;99.90;;;;;;5033751;28;20076;-75
2024/02/18 06:09:13;;;;;;;13.73;3.53;;;2.10;99.90;;;;;;5033853;28;20030;-76
2024/02/18 06:11:39;;;;;;;7.32;3.17;;;2.30;99.90;;;;;;5033497;28;20017;-76
2024/02/18 06:14:05;;;;;;;6.72;2.67;;;2.50;99.90;;;;;;5033081;28;20029;-75
2024/02/18 06:16:30;;;;;;;13.57;2.75;;;2.30;99.90;;;;;;5035415;28;20029;-75
2024/02/18 06:18:56;;;;;;;9.48;3.08;;;2.20;99.90;;;;;;5037085;28;20442;-75
2024/02/18 06:21:22;;;;;;;9.02;4.28;;;2.20;99.90;;;;;;5033333;28;20611;-75
2024/02/18 06:23:48;;;;;;;7.90;3.65;;;2.20;99.90;;;;;;5033256;28;20480;-75
2024/02/18 06:26:15;;;;;;;6.88;2.78;;;2.30;99.90;;;;;;5033312;28;20055;-76
2024/02/18 06:28:41;;;;;;;4.00;3.03;;;2.20;99.90;;;;;;5031672;28;20025;-75
2024/02/18 06:31:07;;;;;;;7.03;3.05;;;2.20;99.90;;;;;;5033059;28;20021;-74
2024/02/18 06:33:32;;;;;;;4.80;4.30;;;2.20;99.90;;;;;;5033286;28;20105;-75
2024/02/18 06:35:58;;;;;;;4.88;3.97;;;2.20;99.90;;;;;;5033400;28;20029;-75
2024/02/18 06:38:24;;;;;;;7.78;4.25;;;2.30;99.90;;;;;;5032842;28;20044;-74
2024/02/18 06:40:50;;;;;;;6.72;3.40;;;2.30;99.90;;;;;;5031387;28;20021;-74
2024/02/18 06:43:16;;;;;;;5.47;3.53;;;2.40;99.90;;;;;;5032994;28;20032;-74
2024/02/18 06:45:41;;;;;;;7.75;4.03;;;2.50;99.90;;;;;;5031900;28;20018;-75
2024/02/18 06:48:07;;;;;;;13.48;3.38;;;2.50;99.90;;;;;;5032773;28;20029;-75
2024/02/18 06:50:33;;;;;;;5.75;3.75;;;2.50;99.90;;;;;;5032878;28;20376;-76
2024/02/18 06:52:58;;;;;;;6.47;3.78;;;2.50;99.90;;;;;;5033060;28;20468;-75
2024/02/18 06:55:24;;;;;;;8.25;3.65;;;2.50;99.90;;;;;;5032917;28;20018;-75
2024/02/18 06:57:49;;;;;;;4.40;4.00;;;2.60;99.90;;;;;;5032830;28;20022;-75
2024/02/18 07:00:16;;;;;;;4.95;4.25;;;2.60;99.90;;;;;;5033235;28;20594;-75
2024/02/18 07:02:43;;;;;;;4.10;3.70;;;2.60;99.90;;;;;;5031501;28;20135;-75
2024/02/18 07:05:09;;;;;;;6.13;3.85;;;2.50;99.90;;;;;;5032035;28;20100;-75
2024/02/18 07:07:35;;;;;;;3.83;3.25;;;2.40;99.90;;;;;;5030612;28;20515;-76
2024/02/18 07:10:01;;;;;;;34.20;12.63;;;2.30;99.90;;;;;;5032202;28;20022;-76
2024/02/18 07:12:29;;;;;;;30.98;11.75;;;2.40;99.90;;;;;;5031283;28;20041;-75
2024/02/18 07:14:55;;;;;;;38.92;13.23;;;2.40;99.90;;;;;;5033737;28;20028;-75
2024/02/18 07:17:20;;;;;;;29.77;8.07;;;2.40;99.90;;;;;;5031124;28;20036;-76
2024/02/18 07:19:46;;;;;;;35.83;10.07;;;2.60;99.90;;;;;;5032306;28;20097;-75
2024/02/18 07:22:14;;;;;;;34.58;9.63;;;2.60;99.90;;;;;;5032354;28;20491;-75
2024/02/18 07:24:40;;;;;;;17.00;5.50;;;2.60;99.90;;;;;;5032472;28;20104;-74
2024/02/18 07:27:05;;;;;;;32.88;7.95;;;2.70;99.90;;;;;;5031422;28;20071;-75
2024/02/18 07:29:31;;;;;;;12.75;5.57;;;2.80;99.90;;;;;;5033083;28;20396;-75
2024/02/18 07:31:57;;;;;;;37.33;9.55;;;2.70;99.90;;;;;;5032382;28;20021;-76
2024/02/18 07:34:22;;;;;;;9.65;6.15;;;2.70;99.90;;;;;;5032628;28;20108;-75
2024/02/18 07:36:48;;;;;;;13.75;5.38;;;2.70;99.90;;;;;;5031480;28;20682;-75
2024/02/18 07:39:14;;;;;;;9.02;4.88;;;2.80;99.90;;;;;;5032095;28;20633;-75
2024/02/18 07:41:39;;;;;;;20.63;5.32;;;2.90;99.90;;;;;;5031926;28;20025;-76
2024/02/18 07:44:05;;;;;;;19.83;7.30;;;3.00;99.90;;;;;;5032406;28;20065;-76
2024/02/18 07:46:31;;;;;;;32.15;6.13;;;3.10;99.90;;;;;;5032682;28;20100;-77
2024/02/18 07:48:57;;;;;;;25.00;5.25;;;3.10;99.90;;;;;;5031017;28;20025;-75
2024/02/18 07:51:25;;;;;;;25.60;7.00;;;3.20;99.90;;;;;;5030828;28;20037;-75
2024/02/18 07:53:51;;;;;;;8.25;5.03;;;3.30;99.90;;;;;;5032075;28;20025;-76
2024/02/18 07:56:17;;;;;;;5.10;3.50;;;3.40;99.90;;;;;;5031528;28;20025;-75
2024/02/18 07:58:43;;;;;;;6.03;4.32;;;3.40;99.90;;;;;;5030655;28;20042;-75
2024/02/18 08:01:08;;;;;;;5.45;4.22;;;3.50;99.90;;;;;;5032025;28;20025;-75
2024/02/18 08:03:34;;;;;;;4.90;3.25;;;3.50;99.90;;;;;;5031834;28;20116;-77
2024/02/18 08:06:00;;;;;;;3.60;3.30;;;3.50;99.90;;;;;;5032114;28;20022;-75
2024/02/18 08:08:25;;;;;;;4.35;3.92;;;3.50;99.90;;;;;;5031862;28;20021;-75
2024/02/18 08:10:51;;;;;;;5.97;4.32;;;3.70;99.90;;;;;;5030657;28;20029;-75
2024/02/18 08:13:17;;;;;;;5.28;4.25;;;3.90;99.90;;;;;;5033119;28;20032;-80
2024/02/18 08:15:42;;;;;;;5.38;4.95;;;3.90;99.90;;;;;;5033567;28;20041;-77
2024/02/18 08:18:09;;;;;;;6.47;5.38;;;4.00;99.90;;;;;;5035319;28;20033;-76
2024/02/18 08:20:35;;;;;;;4.63;4.10;;;4.10;99.90;;;;;;5036261;28;20032;-75
2024/02/18 08:23:01;;;;;;;3.20;2.90;;;4.10;99.90;;;;;;5034278;28;20057;-75
2024/02/18 08:25:27;;;;;;;4.25;3.47;;;4.30;99.90;;;;;;5035574;28;20063;-74
2024/02/18 08:27:52;;;;;;;3.75;3.25;;;4.40;99.90;;;;;;5035416;28;20032;-74
2024/02/18 08:30:18;;;;;;;3.08;2.72;;;4.40;99.90;;;;;;5034982;28;20021;-75
2024/02/18 08:32:45;;;;;;;5.57;3.67;;;4.60;99.90;;;;;;5033721;28;20034;-75
2024/02/18 08:35:11;;;;;;;3.58;3.25;;;4.60;99.90;;;;;;5034295;28;20026;-75
2024/02/18 08:37:37;;;;;;;4.68;3.95;;;4.70;99.90;;;;;;5033885;28;20033;-75
2024/02/18 08:40:04;;;;;;;4.43;3.75;;;4.80;99.90;;;;;;5035518;28;20163;-75
2024/02/18 08:42:30;;;;;;;5.80;3.97;;;5.00;99.90;;;;;;5035909;28;20390;-74
2024/02/18 08:44:56;;;;;;;5.32;4.05;;;5.10;99.90;;;;;;5034210;28;20028;-75
2024/02/18 08:47:21;;;;;;;4.70;3.97;;;5.20;99.90;;;;;;5034155;28;20025;-74
2024/02/18 08:49:47;;;;;;;10.93;4.60;;;5.20;99.90;;;;;;5034946;28;20101;-74
2024/02/18 08:52:13;;;;;;;7.43;4.63;;;5.40;99.90;;;;;;5035037;28;20476;-74
2024/02/18 08:54:42;;;;;;;10.48;5.22;;;5.60;99.90;;;;;;5035337;28;20061;-74
2024/02/18 08:57:08;;;;;;;7.95;5.68;;;5.70;99.90;;;;;;5033755;28;20513;-75
2024/02/18 08:59:34;;;;;;;6.80;4.25;;;5.70;99.90;;;;;;5035146;28;20112;-74
2024/02/18 09:02:00;;;;;;;7.20;4.95;;;5.90;99.90;;;;;;5034974;28;20075;-74
2024/02/18 09:04:26;;;;;;;6.70;4.65;;;6.10;99.90;;;;;;5034869;28;20029;-73
2024/02/18 09:06:52;;;;;;;10.23;7.80;;;6.20;99.90;;;;;;5033616;28;20022;-74
2024/02/18 09:09:18;;;;;;;9.00;6.40;;;6.40;99.90;;;;;;5033413;28;20030;-74
2024/02/18 09:11:44;;;;;;;6.82;5.60;;;6.60;99.90;;;;;;5034832;28;20075;-74
2024/02/18 09:14:10;;;;;;;7.25;5.70;;;6.80;99.90;;;;;;5034437;28;20112;-75
2024/02/18 09:16:36;;;;;;;7.05;5.10;;;6.90;99.90;;;;;;5035019;28;20033;-73
2024/02/18 09:19:02;;;;;;;6.97;4.97;;;7.00;99.90;;;;;;5034686;28;20035;-74
2024/02/18 09:21:27;;;;;;;6.55;5.30;;;7.10;99.90;;;;;;5032942;28;20038;-74
2024/02/18 09:23:53;;;;;;;5.13;4.13;;;7.20;99.90;;;;;;5034584;28;20025;-74
2024/02/18 09:26:19;;;;;;;5.38;4.78;;;7.30;99.90;;;;;;5034717;28;20019;-74
2024/02/18 09:28:45;;;;;;;22.70;14.55;;;7.40;99.90;;;;;;5032850;28;20033;-73
2024/02/18 09:31:11;;;;;;;20.27;13.77;;;7.60;99.90;;;;;;5032962;28;20026;-73
2024/02/18 09:33:40;;;;;;;17.58;13.50;;;8.50;99.90;;;;;;5034479;28;20077;-74
2024/02/18 09:36:06;;;;;;;11.13;8.10;;;8.40;99.90;;;;;;5034593;28;20025;-74
2024/02/18 09:38:32;;;;;;;14.07;8.02;;;8.40;99.90;;;;;;5034333;28;20044;-74
2024/02/18 09:40:57;;;;;;;12.23;9.27;;;8.40;99.90;;;;;;5034225;28;20108;-74
2024/02/18 09:43:25;;;;;;;9.55;6.50;;;8.50;99.90;;;;;;5034487;28;20037;-74
2024/02/18 09:45:52;;;;;;;10.10;6.30;;;8.60;99.90;;;;;;5034691;28;20438;-74
2024/02/18 09:48:20;;;;;;;14.75;9.65;;;8.70;99.90;;;;;;5033067;28;20052;-75
2024/02/18 09:50:48;;;;;;;11.05;7.68;;;8.90;99.90;;;;;;5032822;28;20531;-74
2024/02/18 09:53:16;;;;;;;9.73;7.07;;;9.10;99.90;;;;;;5034298;28;20029;-74
2024/02/18 09:55:43;;;;;;;9.07;6.35;;;9.30;99.90;;;;;;5034350;28;20048;-74
2024/02/18 09:58:10;;;;;;;10.98;7.15;;;9.40;99.90;;;;;;5034478;28;20028;-74
2024/02/18 10:00:36;;;;;;;9.88;8.02;;;9.50;99.90;;;;;;5033345;28;20068;-74
2024/02/18 10:03:03;;;;;;;11.20;7.00;;;9.60;99.90;;;;;;5034614;28;20108;-74
2024/02/18 10:05:31;;;;;;;9.30;6.55;;;9.70;99.90;;;;;;5033096;28;20487;-74
2024/02/18 10:08:03;;;;;;;9.63;6.70;;;9.80;99.90;;;;;;5034237;28;20112;-75
2024/02/18 10:10:36;;;;;;;11.65;7.72;;;9.90;99.90;;;;;;5033130;28;20021;-75
2024/02/18 10:13:04;;;;;;;10.98;7.57;;;10.00;99.90;;;;;;5034212;28;20070;-75
2024/02/18 10:15:33;;;;;;;9.82;6.53;;;10.20;99.90;;;;;;5034482;28;20025;-76
2024/02/18 10:17:58;;;;;;;11.30;8.00;;;10.30;99.90;;;;;;5034177;28;20100;-74
2024/02/18 10:20:28;;;;;;;10.38;6.95;;;10.60;99.90;;;;;;5032760;28;20057;-75
2024/02/18 10:22:54;;;;;;;12.95;7.90;;;10.60;99.90;;;;;;5034247;28;20029;-77
2024/02/18 10:25:20;;;;;;;10.98;7.82;;;10.70;99.90;;;;;;5032924;28;20035;-74
2024/02/18 10:27:46;;;;;;;16.88;10.10;;;10.90;99.90;;;;;;5033641;28;20017;-75
2024/02/18 10:30:12;;;;;;;12.77;8.02;;;10.90;99.90;;;;;;5035573;28;20047;-75
2024/02/18 10:32:38;;;;;;;8.35;6.22;;;10.90;99.90;;;;;;5035464;28;20025;-75
2024/02/18 10:35:05;;;;;;;9.50;6.28;;;10.80;99.90;;;;;;5032606;28;20029;-75
2024/02/18 10:37:41;;;;;;;9.75;8.00;;;10.80;99.90;;;;;;5033644;28;20041;-75
2024/02/18 10:40:24;;;;;;;8.57;5.90;;;10.90;99.90;;;;;;5032722;28;20033;-73
2024/02/18 10:42:59;;;;;;;8.55;6.10;;;11.00;99.90;;;;;;5032996;28;20025;-74
2024/02/18 10:45:26;;;;;;;6.80;5.00;;;11.20;99.90;;;;;;5032177;28;20030;-74
2024/02/18 10:47:54;;;;;;;6.50;4.93;;;11.30;99.90;;;;;;5033588;28;20637;-74
2024/02/18 10:50:23;;;;;;;6.88;4.90;;;11.40;99.90;;;;;;5031721;28;20500;-75
2024/02/18 10:53:19;;;;;;;7.25;4.35;;;11.50;99.90;;;;;;5033544;28;20021;-73
2024/02/18 10:56:13;;;;;;;10.85;8.80;;;11.60;99.90;;;;;;5033217;28;20438;-75
2024/02/18 10:58:44;;;;;;;12.95;7.15;;;11.50;99.90;;;;;;5034823;28;20025;-76
2024/02/18 11:01:12;;;;;;;6.70;4.45;;;11.70;99.90;;;;;;5033804;28;20040;-74
2024/02/18 11:03:51;;;;;;;7.20;5.65;;;11.90;99.90;;;;;;5033420;28;20084;-74
2024/02/18 11:06:17;;;;;;;6.78;4.03;;;12.10;99.90;;;;;;5033188;28;20014;-74
2024/02/18 11:08:45;;;;;;;5.88;3.95;;;12.10;99.90;;;;;;5033329;28;20044;-74
2024/02/18 11:11:14;;;;;;;12.45;5.53;;;11.90;99.90;;;;;;5032906;28;20013;-73
2024/02/18 11:13:40;;;;;;;9.57;6.65;;;11.90;99.90;;;;;;5033577;28;20032;-72
2024/02/18 11:16:09;;;;;;;8.85;5.85;;;11.90;99.90;;;;;;5031317;28;20120;-74
2024/02/18 11:18:39;;;;;;;6.50;4.45;;;12.00;99.90;;;;;;5033082;28;20105;-74
2024/02/18 11:21:06;;;;;;;10.73;5.30;;;12.00;99.90;;;;;;5031624;28;20025;-73
2024/02/18 11:23:32;;;;;;;15.88;8.00;;;12.10;99.90;;;;;;5032866;28;20048;-74
2024/02/18 11:25:58;;;;;;;6.40;3.65;;;12.10;99.90;;;;;;5033541;28;20430;-74
2024/02/18 11:28:25;;;;;;;9.05;4.28;;;12.20;99.90;;;;;;5031665;28;20033;-74
2024/02/18 11:30:50;;;;;;;14.55;5.72;;;12.30;99.90;;;;;;5033104;28;20088;-74
2024/02/18 11:33:17;;;;;;;6.40;4.15;;;12.50;99.90;;;;;;5033088;28;20029;-74
2024/02/18 11:35:43;;;;;;;17.38;8.68;;;12.50;99.90;;;;;;5032672;28;20018;-74
2024/02/18 11:38:09;;;;;;;23.45;11.38;;;12.50;99.90;;;;;;5032915;28;20446;-73
2024/02/18 11:40:47;;;;;;;9.00;5.15;;;12.20;99.90;;;;;;5032737;28;20022;-73
2024/02/18 11:43:14;;;;;;;5.50;3.42;;;12.20;99.90;;;;;;5031783;28;20032;-74
2024/02/18 11:45:45;;;;;;;7.80;3.33;;;12.00;99.90;;;;;;5033211;28;20017;-74
2024/02/18 11:48:12;;;;;;;9.77;3.95;;;11.90;99.90;;;;;;5032919;28;20042;-73
2024/02/18 11:50:37;;;;;;;5.57;3.30;;;11.90;99.90;;;;;;5032766;28;20472;-74
2024/02/18 11:53:04;;;;;;;7.20;3.75;;;11.90;99.90;;;;;;5033739;28;20026;-74
2024/02/18 11:55:30;;;;;;;4.25;3.00;;;11.90;99.90;;;;;;5036963;28;20018;-74
2024/02/18 11:57:57;;;;;;;4.30;2.88;;;11.80;99.90;;;;;;5037095;28;20029;-74
2024/02/18 12:00:23;;;;;;;14.68;7.32;;;11.70;99.90;;;;;;5036917;28;20022;-74
2024/02/18 12:02:53;;;;;;;7.10;4.00;;;11.70;99.90;;;;;;5035255;28;20030;-74
2024/02/18 12:05:20;;;;;;;4.65;3.47;;;11.80;99.90;;;;;;5036241;28;20031;-74
2024/02/18 12:07:47;;;;;;;4.90;3.50;;;11.70;99.90;;;;;;5037173;28;20021;-73
2024/02/18 12:10:13;;;;;;;5.13;3.20;;;11.60;99.90;;;;;;5035309;28;20112;-74
2024/02/18 12:12:39;;;;;;;4.50;3.70;;;11.60;99.90;;;;;;5035597;28;20052;-74
2024/02/18 12:15:05;;;;;;;4.97;3.38;;;11.60;99.90;;;;;;5035092;28;20026;-74
2024/02/18 12:17:31;;;;;;;3.78;2.50;;;11.70;99.90;;;;;;5036096;28;20025;-74
2024/02/18 12:19:57;;;;;;;3.67;2.85;;;11.70;99.90;;;;;;5035102;28;20029;-75
2024/02/18 12:22:27;;;;;;;3.30;2.85;;;12.00;99.90;;;;;;5036175;28;20026;-74
2024/02/18 12:24:54;;;;;;;4.65;3.08;;;12.20;99.90;;;;;;5034807;28;20496;-76
2024/02/18 12:27:20;;;;;;;4.55;2.08;;;12.50;99.90;;;;;;5036361;28;20021;-74
2024/02/18 12:29:47;;;;;;;4.45;2.70;;;12.70;99.90;;;;;;5036355;28;20026;-74
2024/02/18 12:32:14;;;;;;;6.75;3.95;;;12.70;99.90;;;;;;5035827;28;20026;-74
2024/02/18 12:34:42;;;;;;;6.10;3.55;;;12.70;99.90;;;;;;5036264;28;20403;-73
2024/02/18 12:37:08;;;;;;;4.68;3.67;;;12.90;98.70;;;;;;5035964;28;20017;-74
2024/02/18 12:39:34;;;;;;;2.33;1.95;;;13.00;97.70;;;;;;5035758;28;20044;-75
2024/02/18 12:42:01;;;;;;;10.55;5.50;;;13.10;96.60;;;;;;5035941;28;20037;-74
2024/02/18 12:44:27;;;;;;;5.35;3.80;;;13.30;97.10;;;;;;5034277;28;20376;-73
2024/02/18 12:47:00;;;;;;;5.93;3.50;;;13.50;97.40;;;;;;5034197;28;20029;-74
2024/02/18 12:49:31;;;;;;;13.38;3.28;;;13.70;97.20;;;;;;5035376;28;20084;-74